createdAt,value
2024-01-29T00:00:30.964Z,5.00
2024-01-29T00:01:31.363Z,4.40
2024-01-29T00:02:31.608Z,4.10
2024-01-29T00:03:32.103Z,4.40
2024-01-29T00:04:32.334Z,4.60
2024-01-29T00:05:32.567Z,4.40
2024-01-29T00:06:32.955Z,5.00
2024-01-29T00:07:33.186Z,5.10
2024-01-29T00:08:33.536Z,4.40
2024-01-29T00:09:33.779Z,4.20
2024-01-29T00:10:34.293Z,4.60
2024-01-29T00:11:34.502Z,4.80
2024-01-29T00:12:34.678Z,4.80
2024-01-29T00:13:34.988Z,4.70
2024-01-29T00:14:35.260Z,5.00
2024-01-29T00:15:35.590Z,4.60
2024-01-29T00:16:35.886Z,4.70
2024-01-29T00:17:36.270Z,5.30
2024-01-29T00:18:36.484Z,4.10
2024-01-29T00:19:36.843Z,4.50
2024-01-29T00:20:36.883Z,4.30
2024-01-29T00:21:37.227Z,4.50
2024-01-29T00:22:37.518Z,4.30
2024-01-29T00:23:37.831Z,5.00
2024-01-29T00:24:38.185Z,4.40
2024-01-29T00:25:38.526Z,4.10
2024-01-29T00:26:38.764Z,4.80
2024-01-29T00:27:38.975Z,4.90
2024-01-29T00:28:39.154Z,5.20
2024-01-29T00:29:39.482Z,4.80
2024-01-29T00:30:39.798Z,4.80
2024-01-29T00:31:40.035Z,4.90
2024-01-29T00:32:40.379Z,5.00
2024-01-29T00:33:40.758Z,5.00
2024-01-29T00:34:41.020Z,4.60
2024-01-29T00:35:41.225Z,4.50
2024-01-29T00:36:41.563Z,4.80
2024-01-29T00:37:41.890Z,4.40
2024-01-29T00:38:42.166Z,4.60
2024-01-29T00:39:42.633Z,4.30
2024-01-29T00:40:42.848Z,5.30
2024-01-29T00:41:43.046Z,4.90
2024-01-29T00:42:43.364Z,5.30
2024-01-29T00:43:43.700Z,4.90
2024-01-29T00:44:43.989Z,4.60
2024-01-29T00:45:44.315Z,5.00
2024-01-29T00:46:44.614Z,5.10
2024-01-29T00:47:44.917Z,5.40
2024-01-29T00:48:45.308Z,5.10
2024-01-29T00:49:45.605Z,4.90
2024-01-29T00:50:45.831Z,4.90
2024-01-29T00:51:46.171Z,5.50
2024-01-29T00:52:46.433Z,4.80
2024-01-29T00:53:46.794Z,6.00
2024-01-29T00:54:47.045Z,4.60
2024-01-29T00:55:47.332Z,5.00
2024-01-29T00:56:47.639Z,4.70
2024-01-29T00:57:47.958Z,5.70
2024-01-29T00:58:48.272Z,5.90
2024-01-29T00:59:48.646Z,5.50
2024-01-29T01:00:48.935Z,5.20
2024-01-29T01:01:49.405Z,5.40
2024-01-29T01:02:49.480Z,5.80
2024-01-29T01:03:49.789Z,4.60
2024-01-29T01:04:50.036Z,4.70
2024-01-29T01:05:50.261Z,4.80
2024-01-29T01:06:50.582Z,4.70
2024-01-29T01:07:50.895Z,4.50
2024-01-29T01:08:51.203Z,5.30
2024-01-29T01:09:51.614Z,5.30
2024-01-29T01:10:51.791Z,5.00
2024-01-29T01:11:52.092Z,5.30
2024-01-29T01:12:52.494Z,4.90
2024-01-29T01:13:52.632Z,4.50
2024-01-29T01:14:52.952Z,5.00
2024-01-29T01:15:53.302Z,5.50
2024-01-29T01:16:53.605Z,4.40
2024-01-29T01:17:54.012Z,6.50
2024-01-29T01:18:54.276Z,5.90
2024-01-29T01:19:54.570Z,5.40
2024-01-29T01:20:54.768Z,5.40
2024-01-29T01:21:55.186Z,6.00
2024-01-29T01:22:55.339Z,5.50
2024-01-29T01:23:55.646Z,4.70
2024-01-29T01:24:56.016Z,5.50
2024-01-29T01:25:56.285Z,5.60
2024-01-29T01:26:56.619Z,5.60
2024-01-29T01:27:56.984Z,5.10
2024-01-29T01:28:57.133Z,5.00
2024-01-29T01:29:57.506Z,5.20
2024-01-29T01:30:57.848Z,5.10
2024-01-29T01:31:58.010Z,4.90
2024-01-29T01:32:58.360Z,4.80
2024-01-29T01:33:58.693Z,4.50
2024-01-29T01:34:58.955Z,5.40
2024-01-29T01:35:59.160Z,5.10
2024-01-29T01:36:59.555Z,4.60
2024-01-29T01:37:59.748Z,5.40
2024-01-29T01:39:00.039Z,4.60
2024-01-29T01:40:00.543Z,4.90
2024-01-29T01:41:00.685Z,5.20
2024-01-29T01:42:00.992Z,5.30
2024-01-29T01:43:01.409Z,5.60
2024-01-29T01:44:01.578Z,4.70
2024-01-29T01:45:01.902Z,4.80
2024-01-29T01:46:02.281Z,5.10
2024-01-29T01:47:02.468Z,4.80
2024-01-29T01:48:02.807Z,4.60
2024-01-29T01:49:03.180Z,5.60
2024-01-29T01:50:03.434Z,5.70
2024-01-29T01:51:03.587Z,5.10
2024-01-29T01:52:03.982Z,4.90
2024-01-29T01:53:04.121Z,5.40
2024-01-29T01:54:04.400Z,4.80
2024-01-29T01:55:04.890Z,5.40
2024-01-29T01:56:05.052Z,5.60
2024-01-29T01:57:05.360Z,5.10
2024-01-29T01:58:05.771Z,5.30
2024-01-29T01:59:05.984Z,5.50
2024-01-29T02:00:06.296Z,5.50
2024-01-29T02:01:06.724Z,5.50
2024-01-29T02:02:06.926Z,5.60
2024-01-29T02:03:07.218Z,5.40
2024-01-29T02:04:07.700Z,5.30
2024-01-29T02:05:08.142Z,6.00
2024-01-29T02:06:08.165Z,4.90
2024-01-29T02:07:08.472Z,5.00
2024-01-29T02:08:08.730Z,6.20
2024-01-29T02:09:08.910Z,5.40
2024-01-29T02:10:09.269Z,5.40
2024-01-29T02:11:09.541Z,5.50
2024-01-29T02:12:09.847Z,4.70
2024-01-29T02:13:10.189Z,5.00
2024-01-29T02:14:10.499Z,5.00
2024-01-29T02:15:10.703Z,4.60
2024-01-29T02:16:11.018Z,5.10
2024-01-29T02:17:11.309Z,5.60
2024-01-29T02:18:11.722Z,5.40
2024-01-29T02:19:11.959Z,5.20
2024-01-29T02:20:12.227Z,5.10
2024-01-29T02:21:12.553Z,4.60
2024-01-29T02:22:12.887Z,4.90
2024-01-29T02:23:13.216Z,5.40
2024-01-29T02:24:13.526Z,4.80
2024-01-29T02:25:13.904Z,4.80
2024-01-29T02:26:14.120Z,5.10
2024-01-29T02:27:14.393Z,5.70
2024-01-29T02:28:14.698Z,4.90
2024-01-29T02:29:15.008Z,5.70
2024-01-29T02:30:15.289Z,5.50
2024-01-29T02:31:15.601Z,5.40
2024-01-29T02:32:15.928Z,5.10
2024-01-29T02:33:16.336Z,5.70
2024-01-29T02:34:16.720Z,5.30
2024-01-29T02:35:16.780Z,4.80
2024-01-29T02:36:17.066Z,5.20
2024-01-29T02:37:17.381Z,5.30
2024-01-29T02:38:17.720Z,5.40
2024-01-29T02:39:18.043Z,5.00
2024-01-29T02:40:18.337Z,5.50
2024-01-29T02:41:18.660Z,4.60
2024-01-29T02:42:18.985Z,4.20
2024-01-29T02:43:19.269Z,5.30
2024-01-29T02:44:19.580Z,4.70
2024-01-29T02:45:19.900Z,5.70
2024-01-29T02:46:20.271Z,5.30
2024-01-29T02:47:20.569Z,5.60
2024-01-29T02:48:20.889Z,5.30
2024-01-29T02:49:21.134Z,6.20
2024-01-29T02:50:21.289Z,5.90
2024-01-29T02:51:21.668Z,5.40
2024-01-29T02:52:21.951Z,5.40
2024-01-29T02:53:22.255Z,4.50
2024-01-29T02:54:22.625Z,6.10
2024-01-29T02:55:22.845Z,4.20
2024-01-29T02:56:23.223Z,5.70
2024-01-29T02:57:23.414Z,5.30
2024-01-29T02:58:23.736Z,4.90
2024-01-29T02:59:24.072Z,4.60
2024-01-29T03:00:24.425Z,5.00
2024-01-29T03:01:24.685Z,5.40
2024-01-29T03:02:24.891Z,5.40
2024-01-29T03:03:25.290Z,5.20
2024-01-29T03:04:25.719Z,5.20
2024-01-29T03:05:25.829Z,4.50
2024-01-29T03:06:26.146Z,5.00
2024-01-29T03:07:26.419Z,5.50
2024-01-29T03:08:26.713Z,4.90
2024-01-29T03:09:27.204Z,6.50
2024-01-29T03:10:27.327Z,5.00
2024-01-29T03:11:27.640Z,5.50
2024-01-29T03:12:27.993Z,5.40
2024-01-29T03:13:28.167Z,5.10
2024-01-29T03:14:28.476Z,5.10
2024-01-29T03:15:28.844Z,4.90
2024-01-29T03:16:29.073Z,4.90
2024-01-29T03:17:29.281Z,5.70
2024-01-29T03:18:29.751Z,5.20
2024-01-29T03:19:30.031Z,4.70
2024-01-29T03:20:30.151Z,4.90
2024-01-29T03:21:30.482Z,4.90
2024-01-29T03:22:30.769Z,5.10
2024-01-29T03:23:31.147Z,4.60
2024-01-29T03:24:31.416Z,4.70
2024-01-29T03:25:31.603Z,4.70
2024-01-29T03:26:31.931Z,4.70
2024-01-29T03:27:32.275Z,5.20
2024-01-29T03:28:32.569Z,5.00
2024-01-29T03:29:32.936Z,4.70
2024-01-29T03:30:33.170Z,5.00
2024-01-29T03:31:33.522Z,4.50
2024-01-29T03:32:33.861Z,4.80
2024-01-29T03:33:34.121Z,4.30
2024-01-29T03:34:34.348Z,4.40
2024-01-29T03:35:34.521Z,4.80
2024-01-29T03:36:34.849Z,5.20
2024-01-29T03:37:35.148Z,4.70
2024-01-29T03:38:35.509Z,5.10
2024-01-29T03:39:35.737Z,4.80
2024-01-29T03:40:36.004Z,4.70
2024-01-29T03:41:36.961Z,5.10
2024-01-29T03:42:36.643Z,4.70
2024-01-29T03:43:36.943Z,4.90
2024-01-29T03:44:37.278Z,4.80
2024-01-29T03:45:37.605Z,4.80
2024-01-29T03:46:37.906Z,4.40
2024-01-29T03:47:38.242Z,5.00
2024-01-29T03:48:38.531Z,4.60
2024-01-29T03:49:38.802Z,4.90
2024-01-29T03:50:39.098Z,5.30
2024-01-29T03:51:39.421Z,4.90
2024-01-29T03:52:39.756Z,4.90
2024-01-29T03:53:40.052Z,4.80
2024-01-29T03:54:40.430Z,4.60
2024-01-29T03:55:40.737Z,4.90
2024-01-29T03:56:41.046Z,4.70
2024-01-29T03:57:41.409Z,5.10
2024-01-29T03:58:41.716Z,5.60
2024-01-29T03:59:42.005Z,4.80
2024-01-29T04:00:42.379Z,4.70
2024-01-29T04:01:42.829Z,5.10
2024-01-29T04:02:42.881Z,4.60
2024-01-29T04:03:43.263Z,4.70
2024-01-29T04:04:43.509Z,5.00
2024-01-29T04:05:43.828Z,4.50
2024-01-29T04:06:44.258Z,4.60
2024-01-29T04:07:44.495Z,4.70
2024-01-29T04:08:44.663Z,4.90
2024-01-29T04:09:45.019Z,5.30
2024-01-29T04:10:45.326Z,4.90
2024-01-29T04:11:45.681Z,5.00
2024-01-29T04:12:45.908Z,5.00
2024-01-29T04:13:46.207Z,5.10
2024-01-29T04:14:46.483Z,5.20
2024-01-29T04:15:46.873Z,4.60
2024-01-29T04:16:47.073Z,5.20
2024-01-29T04:17:47.436Z,5.00
2024-01-29T04:18:47.690Z,4.50
2024-01-29T04:19:47.951Z,4.40
2024-01-29T04:20:48.243Z,4.80
2024-01-29T04:21:48.643Z,4.90
2024-01-29T04:22:48.799Z,5.20
2024-01-29T04:23:49.109Z,4.90
2024-01-29T04:24:49.443Z,5.30
2024-01-29T04:25:49.797Z,5.00
2024-01-29T04:26:49.982Z,5.20
2024-01-29T04:27:50.383Z,4.60
2024-01-29T04:28:50.569Z,5.10
2024-01-29T04:29:50.922Z,5.00
2024-01-29T04:30:52.093Z,4.40
2024-01-29T04:31:51.500Z,4.30
2024-01-29T04:32:51.644Z,4.30
2024-01-29T04:33:51.996Z,4.90
2024-01-29T04:34:52.213Z,4.80
2024-01-29T04:35:52.500Z,4.00
2024-01-29T04:36:52.803Z,4.50
2024-01-29T04:37:53.090Z,4.40
2024-01-29T04:38:53.416Z,4.60
2024-01-29T04:39:53.744Z,4.90
2024-01-29T04:40:54.058Z,4.90
2024-01-29T04:41:54.346Z,5.00
2024-01-29T04:42:54.677Z,5.20
2024-01-29T04:43:54.997Z,4.50
2024-01-29T04:44:55.315Z,5.30
2024-01-29T04:45:55.667Z,5.70
2024-01-29T04:46:55.966Z,4.90
2024-01-29T04:47:56.256Z,4.60
2024-01-29T04:48:56.462Z,5.30
2024-01-29T04:49:56.720Z,4.80
2024-01-29T04:50:56.990Z,4.60
2024-01-29T04:51:57.312Z,4.80
2024-01-29T04:52:57.620Z,5.10
2024-01-29T04:53:57.951Z,5.50
2024-01-29T04:54:58.417Z,5.20
2024-01-29T04:55:58.579Z,5.00
2024-01-29T04:56:58.894Z,5.40
2024-01-29T04:57:59.299Z,5.20
2024-01-29T04:58:59.516Z,5.10
2024-01-29T04:59:59.800Z,4.70
2024-01-29T05:01:00.137Z,4.90
2024-01-29T05:02:00.462Z,5.00
2024-01-29T05:03:00.785Z,4.80
2024-01-29T05:04:01.033Z,5.70
2024-01-29T05:05:01.203Z,5.50
2024-01-29T05:06:01.598Z,5.50
2024-01-29T05:07:01.932Z,4.70
2024-01-29T05:08:02.129Z,4.70
2024-01-29T05:09:02.411Z,4.90
2024-01-29T05:10:02.840Z,4.90
2024-01-29T05:11:02.993Z,4.90
2024-01-29T05:12:03.364Z,4.50
2024-01-29T05:13:03.616Z,5.60
2024-01-29T05:14:03.836Z,4.60
2024-01-29T05:15:04.196Z,4.50
2024-01-29T05:16:07.120Z,5.50
2024-01-29T05:17:04.825Z,4.70
2024-01-29T05:18:05.017Z,5.20
2024-01-29T05:19:05.423Z,4.90
2024-01-29T05:20:05.715Z,4.90
2024-01-29T05:21:05.993Z,4.80
2024-01-29T05:22:06.179Z,5.60
2024-01-29T05:23:06.474Z,5.40
2024-01-29T05:24:06.806Z,4.50
2024-01-29T05:25:07.128Z,5.50
2024-01-29T05:26:07.437Z,5.30
2024-01-29T05:27:07.665Z,4.90
2024-01-29T05:28:08.055Z,6.10
2024-01-29T05:29:08.261Z,5.70
2024-01-29T05:30:08.595Z,5.20
2024-01-29T05:31:08.971Z,5.40
2024-01-29T05:32:09.187Z,5.70
2024-01-29T05:33:24.809Z,5.10
2024-01-29T05:34:10.933Z,5.10
2024-01-29T05:35:10.026Z,6.00
2024-01-29T05:36:10.338Z,5.50
2024-01-29T05:37:10.625Z,4.70
2024-01-29T05:38:10.952Z,4.50
2024-01-29T05:39:11.225Z,4.70
2024-01-29T05:40:11.661Z,5.10
2024-01-29T05:41:11.854Z,5.40
2024-01-29T05:42:12.165Z,5.70
2024-01-29T05:43:12.512Z,5.40
2024-01-29T05:44:12.914Z,4.80
2024-01-29T05:45:13.150Z,4.40
2024-01-29T05:46:13.385Z,5.30
2024-01-29T05:47:13.673Z,4.80
2024-01-29T05:48:14.114Z,5.00
2024-01-29T05:49:14.461Z,4.80
2024-01-29T05:50:14.574Z,5.20
2024-01-29T05:51:14.821Z,5.50
2024-01-29T05:52:15.157Z,5.50
2024-01-29T05:53:15.434Z,5.80
2024-01-29T05:54:15.834Z,5.40
2024-01-29T05:55:16.127Z,5.30
2024-01-29T05:56:16.347Z,5.40
2024-01-29T05:57:16.726Z,4.70
2024-01-29T05:58:16.992Z,4.50
2024-01-29T05:59:17.188Z,5.10
2024-01-29T06:00:17.483Z,4.90
2024-01-29T06:01:17.982Z,5.50
2024-01-29T06:02:18.258Z,5.00
2024-01-29T06:03:18.406Z,5.30
2024-01-29T06:04:18.853Z,4.50
2024-01-29T06:05:19.066Z,5.10
2024-01-29T06:06:19.318Z,5.00
2024-01-29T06:07:19.652Z,5.40
2024-01-29T06:08:19.900Z,5.20
2024-01-29T06:09:20.049Z,5.10
2024-01-29T06:10:20.531Z,4.80
2024-01-29T06:11:20.751Z,5.20
2024-01-29T06:12:21.069Z,5.40
2024-01-29T06:13:21.490Z,4.90
2024-01-29T06:14:21.807Z,5.50
2024-01-29T06:15:22.096Z,4.90
2024-01-29T06:16:22.298Z,5.40
2024-01-29T06:17:22.653Z,4.90
2024-01-29T06:18:22.978Z,5.20
2024-01-29T06:19:23.316Z,4.70
2024-01-29T06:20:23.424Z,5.10
2024-01-29T06:21:23.648Z,4.60
2024-01-29T06:22:23.970Z,4.60
2024-01-29T06:23:24.336Z,4.50
2024-01-29T06:24:24.555Z,4.60
2024-01-29T06:25:24.826Z,4.10
2024-01-29T06:26:25.195Z,5.20
2024-01-29T06:27:25.453Z,4.80
2024-01-29T06:28:25.638Z,4.90
2024-01-29T06:29:25.977Z,6.10
2024-01-29T06:30:26.323Z,4.90
2024-01-29T06:31:26.609Z,4.90
2024-01-29T06:32:26.940Z,5.40
2024-01-29T06:33:27.396Z,5.00
2024-01-29T06:34:27.736Z,5.00
2024-01-29T06:35:27.924Z,4.60
2024-01-29T06:36:28.299Z,5.80
2024-01-29T06:37:28.521Z,6.20
2024-01-29T06:38:28.813Z,4.60
2024-01-29T06:39:29.138Z,6.20
2024-01-29T06:40:29.522Z,5.20
2024-01-29T06:41:29.942Z,5.80
2024-01-29T06:42:30.007Z,5.40
2024-01-29T06:43:32.525Z,7.60
2024-01-29T06:44:30.642Z,6.40
2024-01-29T06:45:30.992Z,5.80
2024-01-29T06:46:31.264Z,5.60
2024-01-29T06:47:31.530Z,4.50
2024-01-29T06:48:31.850Z,4.60
2024-01-29T06:49:32.296Z,4.70
2024-01-29T06:50:32.504Z,4.90
2024-01-29T06:51:32.861Z,5.10
2024-01-29T06:52:33.143Z,5.20
2024-01-29T06:53:33.462Z,4.70
2024-01-29T06:54:33.834Z,4.50
2024-01-29T06:55:34.019Z,4.80
2024-01-29T06:56:34.257Z,4.70
2024-01-29T06:57:34.605Z,4.50
2024-01-29T06:58:34.886Z,5.60
2024-01-29T06:59:35.145Z,5.20
2024-01-29T07:00:35.439Z,5.30
2024-01-29T07:01:35.778Z,5.00
2024-01-29T07:02:35.928Z,5.40
2024-01-29T07:03:36.273Z,5.50
2024-01-29T07:04:36.527Z,5.10
2024-01-29T07:05:36.759Z,4.50
2024-01-29T07:06:37.121Z,5.10
2024-01-29T07:07:37.343Z,4.60
2024-01-29T07:08:37.708Z,4.80
2024-01-29T07:09:37.949Z,5.50
2024-01-29T07:10:38.131Z,5.00
2024-01-29T07:11:38.472Z,4.90
2024-01-29T07:12:38.730Z,4.60
2024-01-29T07:13:38.955Z,4.90
2024-01-29T07:14:42.039Z,5.10
2024-01-29T07:15:39.656Z,4.70
2024-01-29T07:16:39.791Z,4.40
2024-01-29T07:17:40.049Z,4.80
2024-01-29T07:18:40.330Z,5.40
2024-01-29T07:19:40.645Z,4.60
2024-01-29T07:20:40.844Z,4.60
2024-01-29T07:21:41.174Z,5.00
2024-01-29T07:22:41.505Z,4.90
2024-01-29T07:23:41.758Z,4.90
2024-01-29T07:24:42.081Z,4.30
2024-01-29T07:25:42.405Z,4.70
2024-01-29T07:26:42.721Z,4.80
2024-01-29T07:27:43.106Z,4.50
2024-01-29T07:28:43.352Z,5.40
2024-01-29T07:29:43.655Z,4.70
2024-01-29T07:30:43.908Z,4.70
2024-01-29T07:31:44.246Z,5.00
2024-01-29T07:32:44.631Z,5.30
2024-01-29T07:33:44.966Z,4.40
2024-01-29T07:34:45.087Z,4.80
2024-01-29T07:35:45.415Z,4.70
2024-01-29T07:36:45.790Z,4.70
2024-01-29T07:37:46.003Z,4.60
2024-01-29T07:38:46.216Z,4.50
2024-01-29T07:39:46.618Z,4.30
2024-01-29T07:40:46.820Z,4.10
2024-01-29T07:41:47.152Z,5.20
2024-01-29T07:42:47.383Z,4.90
2024-01-29T07:43:47.731Z,4.80
2024-01-29T07:44:48.072Z,4.30
2024-01-29T07:45:48.314Z,4.00
2024-01-29T07:46:48.664Z,4.80
2024-01-29T07:47:49.073Z,4.50
2024-01-29T07:48:49.360Z,4.30
2024-01-29T07:49:49.609Z,4.50
2024-01-29T07:50:49.803Z,4.40
2024-01-29T07:51:50.197Z,4.40
2024-01-29T07:52:50.401Z,5.00
2024-01-29T07:53:50.675Z,4.00
2024-01-29T07:54:50.926Z,4.20
2024-01-29T07:55:51.255Z,4.20
2024-01-29T07:56:51.445Z,4.40
2024-01-29T07:57:51.769Z,4.40
2024-01-29T07:58:51.955Z,4.10
2024-01-29T07:59:52.290Z,4.40
2024-01-29T08:00:52.794Z,4.50
2024-01-29T08:01:53.051Z,4.10
2024-01-29T08:02:53.158Z,4.20
2024-01-29T08:03:53.453Z,4.30
2024-01-29T08:04:53.830Z,4.70
2024-01-29T08:05:54.084Z,4.10
2024-01-29T08:06:54.272Z,4.10
2024-01-29T08:07:54.494Z,4.20
2024-01-29T08:08:54.761Z,4.20
2024-01-29T08:09:55.142Z,4.70
2024-01-29T08:10:55.325Z,4.00
2024-01-29T08:11:55.602Z,4.30
2024-01-29T08:12:56.027Z,5.00
2024-01-29T08:13:56.141Z,4.80
2024-01-29T08:14:56.544Z,4.70
2024-01-29T08:15:56.785Z,4.00
2024-01-29T08:16:56.976Z,4.70
2024-01-29T08:17:57.283Z,4.30
2024-01-29T08:18:57.620Z,4.10
2024-01-29T08:19:57.969Z,4.20
2024-01-29T08:20:58.149Z,4.00
2024-01-29T08:21:58.343Z,4.40
2024-01-29T08:22:58.593Z,3.80
2024-01-29T08:23:58.899Z,4.30
2024-01-29T08:24:59.128Z,3.90
2024-01-29T08:25:59.420Z,3.70
2024-01-29T08:26:59.750Z,5.10
2024-01-29T08:28:00.081Z,4.90
2024-01-29T08:29:00.310Z,4.50
2024-01-29T08:30:00.693Z,3.80
2024-01-29T08:31:00.979Z,4.10
2024-01-29T08:32:01.223Z,4.00
2024-01-29T08:33:01.458Z,4.30
2024-01-29T08:34:01.812Z,4.10
2024-01-29T08:35:02.082Z,4.50
2024-01-29T08:36:02.293Z,4.30
2024-01-29T08:37:02.544Z,3.40
2024-01-29T08:38:05.366Z,3.50
2024-01-29T08:39:03.064Z,3.70
2024-01-29T08:40:03.384Z,4.50
2024-01-29T08:41:03.554Z,3.40
2024-01-29T08:42:03.929Z,4.00
2024-01-29T08:43:04.187Z,4.10
2024-01-29T08:44:04.397Z,3.70
2024-01-29T08:45:04.676Z,3.60
2024-01-29T08:46:04.971Z,3.80
2024-01-29T08:47:05.167Z,3.70
2024-01-29T08:48:05.499Z,3.90
2024-01-29T08:49:05.845Z,4.10
2024-01-29T08:50:06.214Z,4.10
2024-01-29T08:51:06.431Z,4.30
2024-01-29T08:52:06.846Z,4.10
2024-01-29T08:53:07.126Z,3.80
2024-01-29T08:54:07.344Z,3.30
2024-01-29T08:55:07.811Z,4.10
2024-01-29T08:56:08.021Z,3.90
2024-01-29T08:57:08.366Z,4.10
2024-01-29T08:58:08.697Z,3.80
2024-01-29T08:59:08.950Z,3.70
2024-01-29T09:00:10.114Z,3.60
2024-01-29T09:01:09.568Z,3.70
2024-01-29T09:02:09.784Z,4.30
2024-01-29T09:03:10.182Z,4.10
2024-01-29T09:04:10.548Z,3.90
2024-01-29T09:05:10.727Z,3.90
2024-01-29T09:06:11.219Z,4.10
2024-01-29T09:07:11.265Z,4.00
2024-01-29T09:08:16.430Z,3.90
2024-01-29T09:09:12.987Z,4.20
2024-01-29T09:10:12.439Z,3.80
2024-01-29T09:11:12.523Z,4.90
2024-01-29T09:12:12.720Z,4.50
2024-01-29T09:13:13.014Z,3.90
2024-01-29T09:14:13.212Z,4.00
2024-01-29T09:15:13.497Z,4.10
2024-01-29T09:16:13.763Z,3.60
2024-01-29T09:17:13.939Z,3.40
2024-01-29T09:18:14.320Z,4.10
2024-01-29T09:19:14.698Z,3.90
2024-01-29T09:20:14.903Z,3.90
2024-01-29T09:21:15.121Z,3.60
2024-01-29T09:22:15.529Z,3.80
2024-01-29T09:23:15.644Z,3.90
2024-01-29T09:24:15.921Z,3.90
2024-01-29T09:25:16.199Z,3.50
2024-01-29T09:26:16.432Z,3.80
2024-01-29T09:27:16.672Z,3.90
2024-01-29T09:28:17.008Z,3.90
2024-01-29T09:29:17.230Z,4.30
2024-01-29T09:30:17.501Z,4.00
2024-01-29T09:31:17.732Z,3.10
2024-01-29T09:32:18.069Z,3.60
2024-01-29T09:33:21.916Z,3.90
2024-01-29T09:34:18.641Z,3.90
2024-01-29T09:35:19.034Z,3.60
2024-01-29T09:36:19.031Z,3.70
2024-01-29T09:37:19.270Z,4.00
2024-01-29T09:38:19.523Z,3.20
2024-01-29T09:39:19.736Z,4.20
2024-01-29T09:40:20.109Z,3.60
2024-01-29T09:41:20.305Z,3.60
2024-01-29T09:42:20.529Z,3.50
2024-01-29T09:43:21.035Z,3.80
2024-01-29T09:44:21.134Z,3.60
2024-01-29T09:45:21.355Z,3.90
2024-01-29T09:46:21.653Z,3.70
2024-01-29T09:47:21.898Z,3.80
2024-01-29T09:48:22.419Z,4.00
2024-01-29T09:49:22.577Z,4.00
2024-01-29T09:50:22.687Z,3.80
2024-01-29T09:51:22.919Z,3.60
2024-01-29T09:52:23.372Z,3.70
2024-01-29T09:53:23.576Z,3.40
2024-01-29T09:54:23.804Z,3.60
2024-01-29T09:55:24.132Z,3.60
2024-01-29T09:56:24.382Z,3.90
2024-01-29T09:57:24.629Z,3.80
2024-01-29T09:58:24.829Z,3.80
2024-01-29T09:59:25.088Z,4.20
2024-01-29T10:00:25.350Z,4.10
2024-01-29T10:01:25.673Z,3.90
2024-01-29T10:02:26.110Z,3.40
2024-01-29T10:03:26.215Z,4.00
2024-01-29T10:04:26.557Z,4.10
2024-01-29T10:05:26.984Z,3.10
2024-01-29T10:06:29.593Z,3.60
2024-01-29T10:07:27.499Z,3.90
2024-01-29T10:08:27.620Z,3.80
2024-01-29T10:09:27.882Z,3.70
2024-01-29T10:10:28.079Z,3.80
2024-01-29T10:11:28.316Z,3.70
2024-01-29T10:12:30.220Z,3.30
2024-01-29T10:13:28.871Z,3.50
2024-01-29T10:14:29.301Z,3.40
2024-01-29T10:15:29.541Z,3.60
2024-01-29T10:16:29.730Z,4.10
2024-01-29T10:17:30.000Z,3.70
2024-01-29T10:18:30.360Z,3.40
2024-01-29T10:19:30.569Z,4.20
2024-01-29T10:20:30.805Z,3.60
2024-01-29T10:21:31.094Z,3.90
2024-01-29T10:22:31.342Z,3.80
2024-01-29T10:23:31.607Z,3.20
2024-01-29T10:24:32.650Z,3.00
2024-01-29T10:25:32.332Z,4.60
2024-01-29T10:26:32.516Z,3.60
2024-01-29T10:27:32.834Z,4.20
2024-01-29T10:28:33.055Z,4.40
2024-01-29T10:29:33.294Z,4.30
2024-01-29T10:30:33.588Z,4.00
2024-01-29T10:31:34.000Z,3.80
2024-01-29T10:32:34.068Z,3.60
2024-01-29T10:33:34.961Z,3.20
2024-01-29T10:34:34.875Z,4.00
2024-01-29T10:35:35.286Z,3.80
2024-01-29T10:36:35.227Z,4.00
2024-01-29T10:37:35.429Z,3.60
2024-01-29T10:38:35.748Z,3.30
2024-01-29T10:39:39.555Z,3.40
2024-01-29T10:40:37.623Z,3.50
2024-01-29T10:41:36.571Z,3.70
2024-01-29T10:42:36.808Z,3.70
2024-01-29T10:43:37.020Z,3.20
2024-01-29T10:44:37.239Z,3.60
2024-01-29T10:45:37.608Z,4.20
2024-01-29T10:46:37.800Z,3.80
2024-01-29T10:47:38.278Z,3.40
2024-01-29T10:48:38.633Z,3.90
2024-01-29T10:49:38.915Z,3.40
2024-01-29T10:50:38.998Z,3.70
2024-01-29T10:51:39.385Z,3.30
2024-01-29T10:52:39.591Z,3.40
2024-01-29T10:53:39.823Z,3.50
2024-01-29T10:54:40.192Z,3.40
2024-01-29T10:55:40.373Z,3.40
2024-01-29T10:56:40.648Z,3.30
2024-01-29T10:57:41.044Z,3.80
2024-01-29T10:58:41.271Z,3.80
2024-01-29T10:59:41.622Z,3.40
2024-01-29T11:00:41.959Z,3.20
2024-01-29T11:01:49.206Z,3.50
2024-01-29T11:02:43.386Z,3.30
2024-01-29T11:03:42.651Z,3.40
2024-01-29T11:04:42.869Z,3.50
2024-01-29T11:05:43.133Z,3.30
2024-01-29T11:06:43.373Z,3.40
2024-01-29T11:07:43.638Z,3.40
2024-01-29T11:08:43.827Z,3.10
2024-01-29T11:09:44.186Z,4.00
2024-01-29T11:10:44.398Z,3.20
2024-01-29T11:11:44.789Z,3.40
2024-01-29T11:12:45.094Z,3.20
2024-01-29T11:13:45.327Z,3.40
2024-01-29T11:14:45.546Z,3.60
2024-01-29T11:15:45.922Z,2.80
2024-01-29T11:16:46.169Z,3.20
2024-01-29T11:17:46.385Z,3.30
2024-01-29T11:18:46.781Z,3.00
2024-01-29T11:19:47.106Z,2.60
2024-01-29T11:20:47.237Z,3.10
2024-01-29T11:21:47.601Z,3.20
2024-01-29T11:22:47.830Z,3.00
2024-01-29T11:23:48.183Z,2.60
2024-01-29T11:24:48.349Z,2.80
2024-01-29T11:25:48.665Z,2.60
2024-01-29T11:26:48.919Z,2.80
2024-01-29T11:27:49.308Z,2.80
2024-01-29T11:28:49.417Z,2.90
2024-01-29T11:29:49.793Z,3.10
2024-01-29T11:30:50.086Z,2.70
2024-01-29T11:31:50.361Z,3.10
2024-01-29T11:32:50.639Z,2.60
2024-01-29T11:33:50.956Z,2.70
2024-01-29T11:34:51.292Z,2.60
2024-01-29T11:35:51.440Z,2.80
2024-01-29T11:36:53.414Z,2.80
2024-01-29T11:37:52.051Z,2.90
2024-01-29T11:38:52.267Z,2.30
2024-01-29T11:39:52.523Z,3.10
2024-01-29T11:40:52.747Z,2.40
2024-01-29T11:41:52.989Z,2.60
2024-01-29T11:43:01.996Z,2.60
2024-01-29T11:43:53.708Z,2.30
2024-01-29T11:44:54.092Z,2.50
2024-01-29T11:45:54.280Z,2.70
2024-01-29T11:46:54.479Z,2.10
2024-01-29T11:47:55.708Z,2.10
2024-01-29T11:48:55.243Z,2.60
2024-01-29T11:49:55.391Z,2.10
2024-01-29T11:50:55.680Z,2.20
2024-01-29T11:51:55.953Z,2.10
2024-01-29T11:53:04.602Z,2.50
2024-01-29T11:53:57.473Z,2.50
2024-01-29T11:54:56.787Z,2.20
2024-01-29T11:55:57.130Z,2.40
2024-01-29T11:56:57.238Z,2.20
2024-01-29T11:57:57.562Z,2.50
2024-01-29T11:58:57.767Z,2.60
2024-01-29T11:59:58.136Z,2.10
2024-01-29T12:00:58.537Z,3.10
2024-01-29T12:01:58.782Z,2.50
2024-01-29T12:02:58.923Z,2.10
2024-01-29T12:03:59.168Z,1.90
2024-01-29T12:04:59.410Z,2.40
2024-01-29T12:05:59.742Z,1.80
2024-01-29T12:08:00.432Z,1.90
2024-01-29T12:09:00.570Z,2.20
2024-01-29T12:10:00.898Z,1.80
2024-01-29T12:11:01.130Z,2.30
2024-01-29T12:12:01.369Z,1.80
2024-01-29T12:13:01.602Z,2.00
2024-01-29T12:14:01.833Z,2.10
2024-01-29T12:15:02.156Z,2.50
2024-01-29T12:16:02.783Z,2.40
2024-01-29T12:17:03.163Z,2.40
2024-01-29T12:18:03.032Z,2.40
2024-01-29T12:19:03.264Z,2.10
2024-01-29T12:20:03.576Z,2.10
2024-01-29T12:21:03.907Z,2.50
2024-01-29T12:22:04.044Z,2.70
2024-01-29T12:23:04.233Z,2.90
2024-01-29T12:24:04.594Z,2.50
2024-01-29T12:25:04.953Z,2.60
2024-01-29T12:26:05.152Z,2.60
2024-01-29T12:27:05.398Z,2.60
2024-01-29T12:28:05.851Z,2.80
2024-01-29T12:29:06.164Z,2.30
2024-01-29T12:30:06.320Z,2.50
2024-01-29T12:31:06.729Z,2.50
2024-01-29T12:32:06.821Z,2.70
2024-01-29T12:33:07.118Z,2.90
2024-01-29T12:34:07.558Z,2.40
2024-01-29T12:35:07.973Z,2.50
2024-01-29T12:36:08.075Z,2.50
2024-01-29T12:37:08.315Z,2.70
2024-01-29T12:38:08.541Z,2.50
2024-01-29T12:39:08.793Z,2.10
2024-01-29T12:40:09.265Z,2.50
2024-01-29T12:41:09.400Z,1.90
2024-01-29T12:42:09.656Z,1.90
2024-01-29T12:43:09.987Z,2.10
2024-01-29T12:44:10.150Z,2.30
2024-01-29T12:45:10.530Z,2.30
2024-01-29T12:46:10.899Z,2.30
2024-01-29T12:47:11.262Z,2.00
2024-01-29T12:48:11.581Z,2.20
2024-01-29T12:49:15.579Z,2.40
2024-01-29T12:50:12.000Z,2.30
2024-01-29T12:51:12.362Z,2.30
2024-01-29T12:52:12.544Z,2.30
2024-01-29T12:53:12.753Z,2.40
2024-01-29T12:54:13.014Z,2.50
2024-01-29T12:55:13.232Z,2.40
2024-01-29T12:56:13.489Z,2.40
2024-01-29T12:57:16.278Z,2.30
2024-01-29T12:58:14.061Z,2.00
2024-01-29T12:59:14.295Z,2.40
2024-01-29T13:00:14.508Z,2.50
2024-01-29T13:01:14.770Z,2.60
2024-01-29T13:02:15.132Z,2.10
2024-01-29T13:03:16.348Z,2.00
2024-01-29T13:04:15.701Z,2.20
2024-01-29T13:05:16.054Z,16.90
2024-01-29T13:06:16.195Z,28.60
2024-01-29T13:07:16.518Z,38.30
2024-01-29T13:08:16.791Z,21.20
2024-01-29T13:09:17.104Z,14.60
2024-01-29T13:10:17.459Z,17.00
2024-01-29T13:11:17.591Z,20.90
2024-01-29T13:12:17.875Z,30.60
2024-01-29T13:13:18.217Z,24.80
2024-01-29T13:14:18.475Z,24.40
2024-01-29T13:15:18.819Z,16.80
2024-01-29T13:16:19.357Z,17.40
2024-01-29T13:17:19.319Z,18.40
2024-01-29T13:18:19.582Z,14.10
2024-01-29T13:19:19.869Z,10.60
2024-01-29T13:20:20.140Z,7.40
2024-01-29T13:21:20.355Z,5.40
2024-01-29T13:22:20.611Z,12.30